Flight Track Log - Related Links

Times and Time Zones

All times are in EDT time to prevent confusion due to time zone crossing. See the N372SE flight status page for this flight to view local times or setup timezone preferences in your user account.

Time Position Orientation Groundspeed Altitude Reporting Facility
EDT Latitude Longitude Course Direction KTS MPH feet Rate Location/Type
Sun 05:28:00 PM 40.9333 -72.3500 270° West 71 82 3,400  Level New York TRACON
Sun 05:29:05 PM 40.9333 -72.3833 270° West 77 89 4,100 672 Climbing New York TRACON
Sun 05:30:05 PM 40.9333 -72.4000 270° West 76 87 4,800 650 Climbing New York TRACON
Sun 05:31:05 PM 40.9333 -72.4333 270° West 65 75 5,400 595 Climbing New York TRACON
Sun 05:32:06 PM 40.9333 -72.4500 270° West 71 82 6,000 347 Climbing New York TRACON
Sun 05:33:06 PM 40.9333 -72.4833 270° West 97 112 6,100  Climbing New York TRACON
Sun 05:34:06 PM 40.9333 -72.5167 270° West 102 117 6,000 -50 Descending New York TRACON
Sun 05:35:06 PM 40.9333 -72.5667 270° West 104 120 6,000  Level New York TRACON
Sun 05:36:06 PM 40.9333 -72.6000 270° West 104 120 6,000  Level New York TRACON
Sun 05:37:06 PM 40.9333 -72.6333 270° West 102 117 6,000  Level New York TRACON
Sun 05:38:06 PM 40.9333 -72.6667 270° West 103 119 6,000 50 Level New York TRACON
Sun 05:39:06 PM 40.9333 -72.7167 270° West 102 117 6,100 50 Climbing New York TRACON
Sun 05:40:06 PM 40.9333 -72.7500 270° West 102 117 6,100  Level New York TRACON
Sun 05:41:06 PM 40.9333 -72.7833 270° West 103 119 6,100  Level New York TRACON
Sun 05:42:06 PM 40.9333 -72.8167 270° West 103 119 6,100  Level New York TRACON
Sun 05:43:06 PM 40.9167 -72.8667 246° West 105 121 6,100  Level New York TRACON
Sun 05:44:06 PM 40.9167 -72.9000 270° West 104 120 6,100  Level New York TRACON
Sun 05:45:06 PM 40.9167 -72.9333 270° West 105 121 6,100  Level New York TRACON
Sun 05:46:00 PM 40.9167 -72.9667 270° West 105 121 6,100  Level New York TRACON
Sun 05:47:00 PM 40.9000 -73.0167 246° West 105 121 6,100  Level New York TRACON
Sun 05:48:00 PM 40.9000 -73.0500 270° West 104 120 6,100 -50 Level New York TRACON
Sun 05:49:00 PM 40.9000 -73.0833 270° West 106 122 6,000  Descending New York TRACON
Sun 05:50:06 PM 40.8833 -73.1167 237° Southwest 107 123 6,100 48 Climbing New York TRACON
Sun 05:51:06 PM 40.8833 -73.1667 270° West 105 121 6,100  Level New York TRACON
Sun 05:52:06 PM 40.8833 -73.2000 270° West 104 120 6,100 -50 Level New York TRACON
Sun 05:53:06 PM 40.8833 -73.2333 270° West 104 120 6,000 -50 Descending New York TRACON
Sun 05:54:06 PM 40.8667 -73.2833 246° West 104 120 6,000  Level New York TRACON
Sun 05:55:06 PM 40.8667 -73.3167 270° West 106 122 6,000  Level New York TRACON
Sun 05:56:00 PM 40.8667 -73.3500 270° West 108 124 6,000  Level New York TRACON
Sun 05:57:06 PM 40.8500 -73.3833 237° Southwest 109 125 6,000  Level New York TRACON
Sun 05:58:06 PM 40.8500 -73.4333 270° West 107 123 6,000  Level New York TRACON
Sun 05:59:06 PM 40.8500 -73.4667 270° West 105 121 6,000  Level New York TRACON
Sun 06:00:06 PM 40.8500 -73.5000 270° West 105 121 6,000  Level New York TRACON
Sun 06:01:06 PM 40.8333 -73.5333 237° Southwest 105 121 6,000  Level New York TRACON
Sun 06:02:06 PM 40.8167 -73.5667 237° Southwest 108 124 6,000  Level New York TRACON
Sun 06:03:06 PM 40.8000 -73.5833 217° Southwest 107 123 6,000  Level New York TRACON
Sun 06:04:06 PM 40.7667 -73.6167 217° Southwest 109 125 6,000  Level New York TRACON
Sun 06:05:06 PM 40.7500 -73.6333 217° Southwest 110 127 6,000  Level New York TRACON
Sun 06:06:06 PM 40.7167 -73.6667 217° Southwest 110 127 6,000  Level New York TRACON
Sun 06:07:06 PM 40.7000 -73.7000 237° Southwest 107 123 6,000  Level New York TRACON
Sun 06:08:06 PM 40.6833 -73.7167 217° Southwest 105 121 6,000  Level New York TRACON
Sun 06:09:06 PM 40.6500 -73.7500 217° Southwest 97 112 6,000  Level New York TRACON
Sun 06:10:00 PM 40.6333 -73.7667 217° Southwest 87 100 6,000  Level New York TRACON
Sun 06:11:00 PM 40.6042 -73.7756 208° Southwest  Level FlightAware Approximate
Sun 06:12:06 PM 40.5833 -73.8167 208° Southwest 110 127 6,000  Level New York TRACON
Sun 06:13:06 PM 40.5500 -73.8333 201° Southwest 110 127 6,000  Level New York TRACON
Sun 06:14:06 PM 40.5167 -73.8500 201° Southwest 110 127 6,000  Level New York TRACON
Sun 06:15:06 PM 40.5000 -73.8667 217° Southwest 110 127 6,000  Level New York TRACON
Sun 06:16:06 PM 40.4667 -73.9000 217° Southwest 110 127 6,000  Level New York TRACON
Sun 06:17:06 PM 40.4500 -73.9167 217° Southwest 112 129 6,000  Level New York TRACON
Sun 06:18:06 PM 40.4167 -73.9333 201° Southwest 115 132 6,000  Level New York TRACON
Sun 06:19:06 PM 40.3833 -73.9500 201° Southwest 113 130 6,000 -41 Level New York TRACON
Sun 06:21:00 PM 40.3288 -73.9828 205° Southwest  Level FlightAware Approximate
Sun 06:28:00 PM 40.1393 -74.1220 201° Southwest  Level FlightAware Approximate
Sun 06:29:00 PM 40.1098 -74.1368 201° Southwest  Level FlightAware Approximate
Sun 06:30:00 PM 40.0809 -74.1529 223° Southwest  Level FlightAware Approximate
Sun 06:31:00 PM 40.0575 -74.1810 223° Southwest  Level FlightAware Approximate
Sun 06:32:00 PM 40.0341 -74.2091 223° Southwest  Level FlightAware Approximate
Sun 06:32:51 PM 40.0183 -74.2425 215° Southwest 133 153 5,400  Level Washington Center
Sun 06:33:00 PM 40.0106 -74.2373 223° Southwest  Level FlightAware Approximate
Sun 06:34:00 PM 39.9858 -74.2630 215° Southwest  Level FlightAware Approximate
Sun 06:34:00 PM 39.9878 -74.2689 214° Southwest  Level FlightAware Approximate
Sun 06:35:00 PM 39.9597 -74.2868 215° Southwest  Level FlightAware Approximate
Sun 06:36:00 PM 39.9336 -74.3105 215° Southwest  Level FlightAware Approximate
Sun 06:37:00 PM 39.9075 -74.3343 215° Southwest  Level FlightAware Approximate
Sun 06:37:14 PM 39.8861 -74.3450 201° Southwest 127 146 4,100  Level Washington Center
Sun 06:38:00 PM 39.8814 -74.3580 215° Southwest  Level FlightAware Approximate
Sun 06:39:00 PM 39.8512 -74.4024 232° Southwest  Level FlightAware Approximate
Sun 06:40:52 PM 39.8039 -74.4492 232° Southwest 119 137 4,000  Level Washington Center
Sun 06:41:00 PM 39.9162 -74.5440 237° Southwest  Level Estimated
Sun 06:42:00 PM 39.8864 -74.5587 201° Southwest  Level FlightAware Approximate
Sun 06:42:00 PM 39.7838 -74.4881 236° Southwest  Level FlightAware Approximate
Sun 06:44:29 PM 39.7508 -74.5742 232° Southwest 112 129 4,000  Level Washington Center
Sun 06:46:00 PM 39.7872 -74.6802 232° Southwest  Level Estimated
Sun 06:46:00 PM 39.7202 -74.6226 231° Southwest  Level FlightAware Approximate
Sun 06:48:29 PM 39.6747 -74.7100 237° Southwest 117 135 4,000  Level Washington Center
Sun 06:49:00 PM 39.6724 -74.6960 232° Southwest  Level FlightAware Approximate
Sun 06:50:00 PM 39.6467 -74.7610 235° Southwest  Level FlightAware Approximate
Sun 06:52:29 PM 39.6050 -74.8375 229° Southwest 114 131 4,000  Level Washington Center
Sun 06:53:00 PM 39.6627 -74.9023 237° Southwest  Level Estimated
Sun 06:54:00 PM 39.5768 -74.8884 234° Southwest  Level FlightAware Approximate
Sun 06:57:00 PM 39.5930 -75.0417 229° Southwest  Level Estimated
Sun 07:01:00 PM 39.4963 -75.0223 229° Southwest  Level FlightAware Approximate
Sun 07:02:00 PM 39.4755 -75.0535 229° Southwest  Level FlightAware Approximate
Sun 07:03:00 PM 39.4547 -75.0847 229° Southwest  Level FlightAware Approximate
Sun 07:04:00 PM 39.4339 -75.1158 229° Southwest  Level FlightAware Approximate
Sun 07:05:00 PM 39.4183 -75.1517 241° Southwest  Level FlightAware Approximate
Sun 07:06:00 PM 39.4029 -75.1878 241° Southwest  Level FlightAware Approximate
Sun 07:07:00 PM 39.3874 -75.2238 241° Southwest  Level FlightAware Approximate
Sun 07:08:00 PM 39.3687 -75.2569 231° Southwest  Level FlightAware Approximate
Sun 07:09:00 PM 39.3487 -75.2889 231° Southwest  Level FlightAware Approximate
Sun 07:10:00 PM 39.3287 -75.3209 231° Southwest  Level FlightAware Approximate
Sun 07:11:00 PM 39.3087 -75.3530 231° Southwest  Level FlightAware Approximate
Sun 07:12:00 PM 39.2887 -75.3849 231° Southwest  Level FlightAware Approximate
Sun 07:13:00 PM 39.2687 -75.4169 231° Southwest  Level FlightAware Approximate
Sun 07:14:00 PM 39.2488 -75.4488 231° Southwest  Level FlightAware Approximate
Sun 07:15:00 PM 39.2246 -75.4873 231° Southwest  Level FlightAware Approximate
Sun 07:16:00 PM 39.2134 -75.5330 263° West  Level FlightAware Approximate
Sun 07:17:00 PM 39.2085 -75.5821 263° West  Level FlightAware Approximate
Sun 07:17:00 PM 39.2333 -75.5833 270° West 100 115 6,000  Level Potomac TRACON
Sun 07:18:00 PM 39.2130 -75.6368 263° West  Level FlightAware Approximate
Sun 07:18:00 PM 39.2167 -75.6333 247° West 104 120 6,000  Level Potomac TRACON
Sun 07:19:00 PM 39.2076 -75.6913 263° West  Level FlightAware Approximate
Sun 07:20:00 PM 39.2021 -75.7458 263° West  Level FlightAware Approximate
Sun 07:21:00 PM 39.2000 -75.8005 270° West  Level FlightAware Approximate
Sun 07:21:01 PM 39.2167 -75.7333 270° West 100 115 6,100  Level Potomac TRACON
Sun 07:22:00 PM 39.2000 -75.8555 270° West  Level FlightAware Approximate
Sun 07:22:01 PM 39.2000 -75.7667 237° Southwest 112 129 6,000  Level Potomac TRACON
Sun 07:23:01 PM 39.2000 -75.8167 270° West 106 122 6,000  Level Potomac TRACON
Sun 07:24:01 PM 39.1833 -75.8500 237° Southwest 106 122 6,000  Level Potomac TRACON
Sun 07:25:02 PM 39.1833 -75.8833 270° West 105 121 6,000  Level Potomac TRACON
Sun 07:26:02 PM 39.1667 -75.9167 237° Southwest 108 124 6,000 -53 Level Potomac TRACON
Sun 07:26:56 PM 39.1667 -75.9500 270° West 109 125 5,900 50 Descending Potomac TRACON
Sun 07:28:02 PM 39.1667 -75.9833 270° West 104 120 6,100 94 Climbing Potomac TRACON
Sun 07:29:03 PM 39.1667 -76.0167 270° West 105 121 6,100 -50 Level Potomac TRACON
Sun 07:30:03 PM 39.1667 -76.0667 270° West 103 119 6,000 -53 Descending Potomac TRACON
Sun 07:30:57 PM 39.1667 -76.1000 270° West 103 119 6,000 53 Level Potomac TRACON
Sun 07:31:57 PM 39.1667 -76.1333 270° West 103 119 6,100 50 Climbing Potomac TRACON
Sun 07:32:58 PM 39.1667 -76.1667 270° West 102 117 6,100 -50 Level Potomac TRACON
Sun 07:33:58 PM 39.1667 -76.2000 270° West 102 117 6,000 -48 Descending Potomac TRACON
Sun 07:35:04 PM 39.1667 -76.2333 270° West 102 117 6,000  Level Potomac TRACON
Sun 07:36:04 PM 39.1667 -76.2833 270° West 102 117 6,000 55 Level Potomac TRACON
Sun 07:36:53 PM 39.1667 -76.3167 270° West 104 120 6,100  Climbing Potomac TRACON
Sun 07:37:59 PM 39.1667 -76.3500 270° West 103 119 6,000 -48 Descending Potomac TRACON
Sun 07:38:59 PM 39.1667 -76.3833 270° West 100 115 6,000  Level Potomac TRACON
Sun 07:39:59 PM 39.1833 -76.4167 303° West 104 120 6,000  Level Potomac TRACON
Sun 07:40:59 PM 39.1833 -76.4500 270° West 105 121 6,000  Level Potomac TRACON
Sun 07:41:59 PM 39.2000 -76.4833 303° West 106 122 6,000  Level Potomac TRACON
Sun 07:42:59 PM 39.2167 -76.5333 293° West 107 123 6,000  Level Potomac TRACON
Sun 07:43:59 PM 39.2167 -76.5667 270° West 106 122 6,000  Level Potomac TRACON
Sun 07:44:54 PM 39.2333 -76.6000 303° West 108 124 6,000  Level Potomac TRACON
Sun 07:45:54 PM 39.2333 -76.6333 270° West 106 122 6,000  Level Potomac TRACON
Sun 07:46:54 PM 39.2500 -76.6667 303° West 107 123 6,000  Level Potomac TRACON
Sun 07:47:54 PM 39.2500 -76.7000 270° West 105 121 6,000  Level Potomac TRACON
Sun 07:48:54 PM 39.2667 -76.7333 303° West 107 123 6,000  Level Potomac TRACON
Sun 07:49:54 PM 39.2667 -76.7667 270° West 107 123 6,000  Level Potomac TRACON
Sun 07:50:54 PM 39.2833 -76.8167 293° West 106 122 6,000  Level Potomac TRACON
Sun 07:51:54 PM 39.2833 -76.8500 270° West 109 125 6,000  Level Potomac TRACON
Sun 07:52:55 PM 39.2833 -76.8833 270° West 108 124 6,000 -50 Level Potomac TRACON
Sun 07:53:55 PM 39.2667 -76.9333 247° West 113 130 5,900 -202 Descending Potomac TRACON
Sun 07:54:54 PM 39.2667 -76.9667 270° West 126 145 5,600 -350 Descending Potomac TRACON
Sun 07:55:55 PM 39.2500 -77.0167 247° West 126 145 5,200 -446 Descending Potomac TRACON
Sun 07:56:55 PM 39.2500 -77.0500 270° West 131 151 4,700 -400 Descending Potomac TRACON
Sun 07:57:55 PM 39.2333 -77.1000 247° West 132 152 4,400 -350 Descending Potomac TRACON
Sun 07:58:55 PM 39.2333 -77.1500 270° West 128 147 4,000 -211 Descending Potomac TRACON
Sun 07:59:49 PM 39.2167 -77.1833 237° Southwest 116 133 4,000  Level Potomac TRACON
Sun 08:00:49 PM 39.2167 -77.2167 270° West 114 131 4,000  Level Potomac TRACON
Sun 08:01:49 PM 39.2167 -77.2667 270° West 114 131 4,000 -95 Level Potomac TRACON
Sun 08:02:55 PM 39.2000 -77.3167 247° West 124 143 3,800 -333 Descending Potomac TRACON
Sun 08:03:55 PM 39.2000 -77.3500 270° West 133 153 3,300 -500 Descending Potomac TRACON
Sun 08:04:55 PM 39.2000 -77.4000 270° West 131 151 2,800 -400 Descending Potomac TRACON
Sun 08:05:55 PM 39.1833 -77.4500 247° West 128 147 2,500 -150 Descending Potomac TRACON
Sun 08:06:55 PM 39.1833 -77.4833 270° West 116 133 2,500  Level Potomac TRACON
Sun 08:07:55 PM 39.1667 -77.5167 237° Southwest 111 128 2,500 -100 Level Potomac TRACON
Sun 08:08:55 PM 39.1333 -77.5333 201° Southwest 113 130 2,300 -550 Descending Potomac TRACON
Sun 08:09:55 PM 39.1167 -77.5667 237° Southwest 96 110 1,400 -737 Descending Potomac TRACON
Sun 08:10:49 PM 39.1000 -77.5667 180° South 79 91 900 -368 Descending Potomac TRACON
Sun 08:11:49 PM 39.0833 -77.5667 180° South 66 76 700 -100 Descending Potomac TRACON
Sun 08:12:49 PM 39.0833 -77.5500 90° East 65 75 700  Level Potomac TRACON
Sun 08:14:00 PM 39.0780 -77.5575 256° West  Level Estimated

Login

Don't have an account? Register now (free) for customized features, flight alerts, and more!